Time;durP1;ratioP1;P1;durP2;ratioP2;P2;SDS_P1;SDS_P2;PMS_P1;PMS_P2;Temp;Humidity;BMP_temperature;BMP_pressure;BME280_temperature;BME280_humidity;BME280_pressure;Samples;Min_cycle;Max_cycle;Signal;HPM_P1;HPM_P2
2022/12/03 04:03:09;;;;;;;;;;;1.50;99.90;;;;;;4907374;29;20445;-68
2022/12/03 04:05:36;;;;;;;;;;;1.50;99.90;;;;;;4907862;29;19983;-68
2022/12/03 04:08:03;;;;;;;;;;;1.50;99.90;;;;;;4906630;29;19967;-69
2022/12/03 04:13:14;;;;;;;;;;;1.60;99.90;;;;;;4892894;29;19923;-69
2022/12/03 04:15:40;;;;;;;;;;;1.70;99.90;;;;;;4892944;29;19981;-66
2022/12/03 04:22:38;;;;;;;;;;;1.70;99.90;;;;;;4882788;29;19927;-69
2022/12/03 04:23:39;;;;;;;;;;;1.70;99.90;;;;;;4881950;29;19934;-67
2022/12/03 04:28:50;;;;;;;;;;;1.70;99.90;;;;;;4889229;29;19923;-67
2022/12/03 04:36:46;;;;;;;;;;;1.70;99.90;;;;;;4887274;29;19967;-68
2022/12/03 04:39:13;;;;;;;;;;;1.80;99.90;;;;;;4889494;29;20030;-68
2022/12/03 04:41:39;;;;;;;;;;;1.80;99.90;;;;;;4893420;29;20371;-68
2022/12/03 04:46:50;;;;;;;;;;;1.80;99.90;;;;;;4886584;29;19924;-68
2022/12/03 04:49:18;;;;;;;;;;;1.80;99.90;;;;;;4894762;29;20407;-69
2022/12/03 04:51:45;;;;;;;;;;;1.80;99.90;;;;;;4880745;29;19951;-69
2022/12/03 04:54:11;;;;;;;;;;;1.80;99.90;;;;;;4891380;29;20049;-67
2022/12/03 04:56:38;;;;;;;;;;;1.80;99.90;;;;;;4892150;29;20402;-69
2022/12/03 04:59:05;;;;;;;;;;;1.80;99.90;;;;;;4889797;29;19976;-69
2022/12/03 05:01:31;;;;;;;;;;;1.80;99.90;;;;;;4886565;29;20008;-68
2022/12/03 05:03:58;;;;;;;;;;;1.80;99.90;;;;;;4884484;29;19996;-68
2022/12/03 05:06:26;;;;;;;;;;;1.80;99.90;;;;;;4887934;29;19927;-68
2022/12/03 05:08:53;;;;;;;;;;;1.90;99.90;;;;;;4889583;29;20019;-67
2022/12/03 05:11:19;;;;;;;;;;;1.90;99.90;;;;;;4887376;29;20430;-68
2022/12/03 05:13:47;;;;;;;;;;;1.90;99.90;;;;;;4885206;29;19958;-69
2022/12/03 05:16:14;;;;;;;;;;;1.90;99.90;;;;;;4891306;29;19928;-68
2022/12/03 05:18:40;;;;;;;;;;;1.90;99.90;;;;;;4889120;29;19988;-68
2022/12/03 05:21:07;;;;;;;;;;;1.90;99.90;;;;;;4886196;29;20391;-68
2022/12/03 05:23:35;;;;;;;;;;;1.90;99.90;;;;;;4885284;29;19927;-68
2022/12/03 05:26:02;;;;;;;;;;;1.90;99.90;;;;;;4885968;29;19928;-69
2022/12/03 05:28:29;;;;;;;;;;;1.90;99.90;;;;;;4883254;29;19982;-69
2022/12/03 05:30:56;;;;;;;;;;;2.00;99.90;;;;;;4890453;29;19928;-68
2022/12/03 05:33:22;;;;;;;;;;;1.90;99.90;;;;;;4891527;29;19931;-69
2022/12/03 05:35:49;;;;;;;;;;;1.90;99.90;;;;;;4883725;29;19928;-69
2022/12/03 05:38:16;;;;;;;;;;;1.90;99.90;;;;;;4890652;29;19950;-70
2022/12/03 05:40:44;;;;;;;;;;;1.90;99.90;;;;;;4889899;29;19932;-71
2022/12/03 05:43:10;;;;;;;;;;;1.90;99.90;;;;;;4884034;29;19928;-71
2022/12/03 05:45:38;;;;;;;;;;;1.90;99.90;;;;;;4892127;29;19983;-70
2022/12/03 05:48:05;;;;;;;;;;;1.90;99.90;;;;;;4883846;29;20427;-70
2022/12/03 05:50:33;;;;;;;;;;;1.90;99.90;;;;;;4882333;29;20292;-71
2022/12/03 05:53:14;;;;;;;;;;;1.80;99.90;;;;;;4892393;29;19928;-70
2022/12/03 05:55:41;;;;;;;;;;;1.80;99.90;;;;;;4891239;29;19931;-71
2022/12/03 05:58:10;;;;;;;;;;;1.80;99.90;;;;;;4888673;29;19976;-70
2022/12/03 06:00:37;;;;;;;;;;;1.80;99.90;;;;;;4891507;29;20402;-67
2022/12/03 06:03:05;;;;;;;;;;;1.80;99.90;;;;;;4885046;29;19971;-68
2022/12/03 06:05:32;;;;;;;;;;;1.80;99.90;;;;;;4883547;29;20445;-68
2022/12/03 06:07:58;;;;;;;;;;;1.80;99.90;;;;;;4883579;29;20017;-69
2022/12/03 06:10:26;;;;;;;;;;;1.80;99.90;;;;;;4888703;29;20288;-69
2022/12/03 06:12:52;;;;;;;;;;;1.80;99.90;;;;;;4906175;29;19932;-70
2022/12/03 06:15:21;;;;;;;;;;;1.80;99.90;;;;;;4885701;29;20307;-67
2022/12/03 06:17:48;;;;;;;;;;;1.80;99.90;;;;;;4888127;29;19934;-71
2022/12/03 06:20:16;;;;;;;;;;;1.90;99.90;;;;;;4891296;29;20326;-70
2022/12/03 06:22:42;;;;;;;;;;;1.90;99.90;;;;;;4887198;29;20364;-70
2022/12/03 06:25:10;;;;;;;;;;;1.90;99.90;;;;;;4883770;29;19927;-70
2022/12/03 06:27:36;;;;;;;;;;;1.90;99.90;;;;;;4886323;29;19935;-68
2022/12/03 06:30:03;;;;;;;;;;;2.00;99.90;;;;;;4908091;29;19928;-69
2022/12/03 06:32:32;;;;;;;;;;;1.90;99.90;;;;;;4887923;29;20058;-70
2022/12/03 06:34:59;;;;;;;;;;;1.90;99.90;;;;;;4887820;29;19959;-69
2022/12/03 06:37:25;;;;;;;;;;;1.90;99.90;;;;;;4896078;29;19931;-70
2022/12/03 06:39:52;;;;;;;;;;;1.90;99.90;;;;;;4896087;29;19927;-68
2022/12/03 06:42:20;;;;;;;;;;;2.00;99.90;;;;;;4888754;29;19928;-69
2022/12/03 06:44:47;;;;;;;;;;;1.90;99.90;;;;;;4888823;29;19928;-69
2022/12/03 06:47:13;;;;;;;;;;;1.90;99.90;;;;;;4887098;29;19928;-70
2022/12/03 06:49:42;;;;;;;;;;;2.00;99.90;;;;;;4891340;29;19928;-70
2022/12/03 06:52:08;;;;;;;;;;;1.90;99.90;;;;;;4886315;29;19931;-69
2022/12/03 06:54:35;;;;;;;;;;;1.90;99.90;;;;;;4888009;29;19935;-70
2022/12/03 06:57:02;;;;;;;;;;;1.90;99.90;;;;;;4892856;29;19963;-69
2022/12/03 06:59:32;;;;;;;;;;;1.90;99.90;;;;;;4891844;29;19927;-69
2022/12/03 07:01:59;;;;;;;;;;;1.90;99.90;;;;;;4888354;29;19932;-69
2022/12/03 07:04:26;;;;;;;;;;;1.90;99.90;;;;;;4895436;29;20375;-70
2022/12/03 07:06:54;;;;;;;;;;;1.90;99.90;;;;;;4898114;29;19935;-70
2022/12/03 07:09:21;;;;;;;;;;;1.90;99.90;;;;;;4899158;29;19932;-70
2022/12/03 07:11:48;;;;;;;;;;;1.90;99.90;;;;;;4896745;29;19934;-69
2022/12/03 07:14:15;;;;;;;;;;;1.90;99.90;;;;;;4892285;29;19928;-69
2022/12/03 07:16:42;;;;;;;;;;;1.90;99.90;;;;;;4896218;29;19939;-71
2022/12/03 07:19:10;;;;;;;;;;;1.90;99.90;;;;;;4898229;29;20018;-70
2022/12/03 07:21:37;;;;;;;;;;;1.90;99.90;;;;;;4891356;29;19935;-70
2022/12/03 07:24:05;;;;;;;;;;;1.90;99.90;;;;;;4897899;29;19927;-71
2022/12/03 07:26:32;;;;;;;;;;;1.90;99.90;;;;;;4898021;29;20390;-68
2022/12/03 07:28:59;;;;;;;;;;;1.90;99.90;;;;;;4899095;29;19931;-70
2022/12/03 07:31:26;;;;;;;;;;;1.90;99.90;;;;;;4895305;29;20379;-68
2022/12/03 07:33:52;;;;;;;;;;;1.90;99.90;;;;;;4885719;29;19927;-66
2022/12/03 07:36:19;;;;;;;;;;;1.90;99.90;;;;;;4891462;29;19931;-68
2022/12/03 07:38:46;;;;;;;;;;;2.00;99.90;;;;;;4888310;29;20459;-68
2022/12/03 07:41:14;;;;;;;;;;;2.00;99.90;;;;;;4905180;29;19928;-65
2022/12/03 07:43:41;;;;;;;;;;;2.00;99.90;;;;;;4897960;29;20457;-69
2022/12/03 07:48:50;;;;;;;;;;;2.00;99.90;;;;;;5256501;23;20025;-67
2022/12/03 07:51:16;;;;;;;;;;;2.00;99.90;;;;;;4916145;29;19998;-69
2022/12/03 07:53:43;;;;;;;;;;;2.00;99.90;;;;;;4916947;29;20018;-67
2022/12/03 07:56:10;;;;;;;;;;;2.00;99.90;;;;;;4917404;29;20370;-69
2022/12/03 07:58:38;;;;;;;;;;;2.00;99.90;;;;;;4906579;29;19967;-68
2022/12/03 08:01:04;;;;;;;;;;;2.00;99.90;;;;;;4898575;29;19927;-69
2022/12/03 08:03:31;;;;;;;;;;;2.00;99.90;;;;;;4912954;29;20046;-67
2022/12/03 08:05:57;;;;;;;;;;;2.10;99.90;;;;;;4897138;29;20305;-68
2022/12/03 08:08:24;;;;;;;;;;;2.00;99.90;;;;;;4897058;29;20022;-70
2022/12/03 08:10:51;;;;;;;;;;;2.00;99.90;;;;;;4909469;29;19970;-69
2022/12/03 08:13:18;;;;;;;;;;;2.00;99.90;;;;;;4895642;29;20379;-69
2022/12/03 08:15:46;;;;;;;;;;;2.00;99.90;;;;;;4894152;29;19927;-69
2022/12/03 08:18:14;;;;;;;;;;;2.00;99.90;;;;;;4909932;29;19935;-68
2022/12/03 08:20:42;;;;;;;;;;;2.10;99.90;;;;;;4893808;29;19928;-69
2022/12/03 08:23:12;;;;;;;;;;;2.10;99.90;;;;;;4889029;29;19984;-69
2022/12/03 08:25:39;;;;;;;;;;;2.10;99.90;;;;;;4896630;29;20459;-68
2022/12/03 08:28:10;;;;;;;;;;;2.10;99.90;;;;;;4893736;29;19928;-70
2022/12/03 08:30:37;;;;;;;;;;;2.10;99.90;;;;;;4896405;29;19951;-69
2022/12/03 08:33:12;;;;;;;;;;;2.10;99.90;;;;;;4896877;29;19992;-68
2022/12/03 08:35:41;;;;;;;;;;;2.20;99.90;;;;;;4896931;29;19939;-67
2022/12/03 08:38:10;;;;;;;;;;;2.20;99.90;;;;;;4899333;29;19927;-69
2022/12/03 08:40:40;;;;;;;;;;;2.20;99.90;;;;;;4903064;29;19928;-69
2022/12/03 08:43:12;;;;;;;;;;;2.30;99.90;;;;;;4898883;29;19927;-69
2022/12/03 08:45:41;;;;;;;;;;;2.30;99.90;;;;;;4912463;29;19959;-69
2022/12/03 08:48:21;;;;;;;;;;;2.30;99.90;;;;;;4895867;29;20310;-69
2022/12/03 08:50:48;;;;;;;;;;;2.40;99.90;;;;;;4894720;29;19927;-70
2022/12/03 08:53:28;;;;;;;;;;;2.40;99.90;;;;;;4894089;29;19959;-70
2022/12/03 08:55:55;;;;;;;;;;;2.40;99.90;;;;;;4893022;29;19928;-70
2022/12/03 08:58:23;;;;;;;;;;;2.50;99.90;;;;;;4891193;29;20023;-69
2022/12/03 09:00:52;;;;;;;;;;;2.50;99.90;;;;;;4893255;29;19927;-69
2022/12/03 09:03:20;;;;;;;;;;;2.50;99.90;;;;;;4891454;29;19936;-70
2022/12/03 09:05:47;;;;;;;;;;;2.60;99.90;;;;;;4893793;29;19939;-69
2022/12/03 09:08:13;;;;;;;;;;;2.60;99.90;;;;;;4911386;29;19960;-70
2022/12/03 09:10:40;;;;;;;;;;;2.70;99.90;;;;;;4893531;29;19935;-70
2022/12/03 09:13:07;;;;;;;;;;;2.70;99.90;;;;;;4902717;29;19947;-69
2022/12/03 09:15:34;;;;;;;;;;;2.80;99.90;;;;;;4895951;29;19934;-77
2022/12/03 09:18:01;;;;;;;;;;;2.80;99.90;;;;;;4888857;29;19931;-70
2022/12/03 09:20:29;;;;;;;;;;;2.90;99.90;;;;;;4904638;29;19927;-67
2022/12/03 09:22:56;;;;;;;;;;;3.00;99.90;;;;;;4896130;29;19931;-68
2022/12/03 09:25:22;;;;;;;;;;;3.10;99.90;;;;;;4893881;29;20383;-67
2022/12/03 09:27:49;;;;;;;;;;;3.20;99.90;;;;;;4895672;29;19936;-68
2022/12/03 09:30:16;;;;;;;;;;;3.30;99.90;;;;;;4899401;29;19934;-68
2022/12/03 09:32:43;;;;;;;;;;;3.40;99.90;;;;;;4896171;29;19927;-68
2022/12/03 09:35:10;;;;;;;;;;;3.60;99.90;;;;;;4904126;29;19928;-68
2022/12/03 09:37:38;;;;;;;;;;;3.60;99.90;;;;;;4894522;29;19992;-67
2022/12/03 09:40:06;;;;;;;;;;;3.80;99.90;;;;;;4895404;29;20406;-70
2022/12/03 09:42:33;;;;;;;;;;;3.90;99.90;;;;;;4895751;29;19972;-66
2022/12/03 09:45:00;;;;;;;;;;;3.90;99.90;;;;;;4901956;29;19928;-67
2022/12/03 09:47:28;;;;;;;;;;;3.90;99.90;;;;;;4909758;29;19927;-67
2022/12/03 09:49:56;;;;;;;;;;;3.90;99.90;;;;;;4896118;29;19928;-68
2022/12/03 09:52:24;;;;;;;;;;;3.80;99.90;;;;;;4896262;29;19939;-67
2022/12/03 09:54:52;;;;;;;;;;;3.80;99.90;;;;;;4894445;29;19979;-67
2022/12/03 09:57:19;;;;;;;;;;;3.80;99.90;;;;;;4896332;29;19927;-67
2022/12/03 09:59:46;;;;;;;;;;;3.70;99.90;;;;;;4895054;29;19931;-68
2022/12/03 10:02:18;;;;;;;;;;;3.70;99.90;;;;;;4895739;29;20296;-67
2022/12/03 10:04:45;;;;;;;;;;;3.60;99.90;;;;;;4895443;29;19934;-66
2022/12/03 10:07:12;;;;;;;;;;;3.60;99.90;;;;;;4910051;29;19995;-67
2022/12/03 10:09:39;;;;;;;;;;;3.60;99.90;;;;;;4909229;29;20462;-66
2022/12/03 10:12:09;;;;;;;;;;;3.50;99.90;;;;;;4909705;29;19927;-68
2022/12/03 10:14:36;;;;;;;;;;;3.50;99.90;;;;;;4895137;29;20406;-67
2022/12/03 10:17:03;;;;;;;;;;;3.60;99.90;;;;;;4905517;29;19935;-67
2022/12/03 10:19:31;;;;;;;;;;;3.70;99.90;;;;;;4893584;29;19927;-67
2022/12/03 10:21:58;;;;;;;;;;;3.70;99.90;;;;;;4908921;29;19931;-68
2022/12/03 10:24:27;;;;;;;;;;;3.70;99.90;;;;;;4898263;29;20347;-68
2022/12/03 10:26:55;;;;;;;;;;;3.80;99.90;;;;;;4893006;29;19928;-67
2022/12/03 10:29:23;;;;;;;;;;;3.80;99.90;;;;;;4906586;29;19935;-67
2022/12/03 10:31:54;;;;;;;;;;;3.80;99.90;;;;;;4895141;29;19936;-68
2022/12/03 10:34:24;;;;;;;;;;;3.80;99.90;;;;;;4893935;29;19933;-67
2022/12/03 10:37:08;;;;;;;;;;;3.90;99.90;;;;;;4895368;29;19934;-67
2022/12/03 10:39:51;;;;;;;;;;;3.80;99.90;;;;;;4895034;29;19954;-67
2022/12/03 10:42:18;;;;;;;;;;;3.80;99.90;;;;;;4892823;29;19996;-65
2022/12/03 10:44:46;;;;;;;;;;;3.80;99.90;;;;;;4894584;29;20026;-65
2022/12/03 10:47:14;;;;;;;;;;;3.80;99.90;;;;;;4894310;29;19927;-66
2022/12/03 10:49:41;;;;;;;;;;;3.70;99.90;;;;;;4892515;29;19992;-67
2022/12/03 10:52:19;;;;;;;;;;;3.50;99.90;;;;;;4908608;29;19934;-68
2022/12/03 10:54:46;;;;;;;;;;;3.50;99.90;;;;;;4890218;29;19974;-66
2022/12/03 10:57:13;;;;;;;;;;;3.40;99.90;;;;;;4908742;29;19935;-67
2022/12/03 10:59:41;;;;;;;;;;;3.40;99.90;;;;;;4909293;29;19927;-66
2022/12/03 11:02:12;;;;;;;;;;;3.40;99.90;;;;;;4902719;29;19928;-66
2022/12/03 11:04:40;;;;;;;;;;;3.40;99.90;;;;;;4887599;29;19939;-66
2022/12/03 11:07:12;;;;;;;;;;;3.30;99.90;;;;;;4897598;29;19931;-66
2022/12/03 11:09:39;;;;;;;;;;;3.30;99.90;;;;;;4888664;29;19928;-68
2022/12/03 11:12:06;;;;;;;;;;;3.30;99.90;;;;;;4899839;29;19927;-68
2022/12/03 11:14:52;;;;;;;;;;;3.30;99.90;;;;;;4909350;29;19927;-67
2022/12/03 11:17:40;;;;;;;;;;;3.30;99.90;;;;;;4894529;29;19928;-67
2022/12/03 11:20:09;;;;;;;;;;;3.40;99.90;;;;;;4888273;29;19964;-66
2022/12/03 11:22:41;;;;;;;;;;;3.40;99.90;;;;;;4893600;29;19927;-66
2022/12/03 11:25:26;;;;;;;;;;;3.40;99.90;;;;;;4894807;29;20355;-66
2022/12/03 11:28:12;;;;;;;;;;;3.40;99.90;;;;;;4893252;29;19936;-66
2022/12/03 11:30:55;;;;;;;;;;;3.40;99.90;;;;;;4892936;29;20022;-66
2022/12/03 11:33:24;;;;;;;;;;;3.50;99.90;;;;;;4896809;29;19928;-68
2022/12/03 11:36:06;;;;;;;;;;;3.50;99.90;;;;;;4909077;29;19932;-68
2022/12/03 11:38:40;;;;;;;;;;;3.60;99.90;;;;;;4890083;29;20387;-65
2022/12/03 11:41:07;;;;;;;;;;;3.60;99.90;;;;;;4894587;29;19936;-66
2022/12/03 11:43:54;;;;;;;;;;;3.70;99.90;;;;;;4909501;29;19932;-66
2022/12/03 11:46:22;;;;;;;;;;;3.70;99.90;;;;;;4889563;29;20018;-67
2022/12/03 11:48:51;;;;;;;;;;;3.70;99.90;;;;;;4895200;29;19936;-66
2022/12/03 11:51:20;;;;;;;;;;;3.70;99.90;;;;;;4898609;29;20310;-67
2022/12/03 11:53:46;;;;;;;;;;;3.70;99.90;;;;;;4895822;29;19931;-66
2022/12/03 11:56:17;;;;;;;;;;;3.70;99.90;;;;;;4897070;29;19942;-67
2022/12/03 11:58:44;;;;;;;;;;;3.70;99.90;;;;;;4897346;29;19956;-66
2022/12/03 12:01:11;;;;;;;;;;;3.70;99.90;;;;;;4911105;29;20375;-67
2022/12/03 12:03:42;;;;;;;;;;;3.70;99.90;;;;;;4913222;29;19928;-66
2022/12/03 12:06:11;;;;;;;;;;;3.70;99.90;;;;;;4898048;29;20344;-65
2022/12/03 12:08:38;;;;;;;;;;;3.70;99.90;;;;;;4895964;29;19928;-67
2022/12/03 12:11:16;;;;;;;;;;;3.70;99.90;;;;;;4896630;29;19931;-66
2022/12/03 12:13:53;;;;;;;;;;;3.80;99.90;;;;;;4896457;29;19975;-66
2022/12/03 12:16:50;;;;;;;;;;;3.80;99.90;;;;;;4912536;29;20037;-67
2022/12/03 12:19:30;;;;;;;;;;;3.90;99.90;;;;;;4824264;29;20117;-65
2022/12/03 12:22:11;;;;;;;;;;;3.90;99.90;;;;;;4899678;29;19934;-66
2022/12/03 12:24:45;;;;;;;;;;;3.90;99.90;;;;;;4910751;29;19927;-66
2022/12/03 12:27:13;;;;;;;;;;;3.80;99.90;;;;;;4896649;29;19966;-65
2022/12/03 12:29:41;;;;;;;;;;;3.80;99.90;;;;;;4892439;29;19948;-67
2022/12/03 12:32:13;;;;;;;;;;;3.80;99.90;;;;;;4906336;29;19935;-66
2022/12/03 12:34:41;;;;;;;;;;;3.90;99.90;;;;;;4895972;29;19991;-67
2022/12/03 12:37:11;;;;;;;;;;;3.90;99.90;;;;;;4895754;29;19931;-66
2022/12/03 12:39:38;;;;;;;;;;;3.90;99.90;;;;;;4895878;29;20322;-66
2022/12/03 12:42:13;;;;;;;;;;;4.00;99.90;;;;;;4895467;29;20025;-66
2022/12/03 12:44:40;;;;;;;;;;;4.00;99.90;;;;;;4910600;29;19979;-66
2022/12/03 12:47:11;;;;;;;;;;;4.00;99.90;;;;;;4895688;29;20390;-66
2022/12/03 12:49:38;;;;;;;;;;;4.00;99.90;;;;;;4895549;29;19950;-67
2022/12/03 12:52:05;;;;;;;;;;;4.00;99.90;;;;;;4895819;29;19931;-66
2022/12/03 12:54:33;;;;;;;;;;;4.00;99.90;;;;;;4896049;29;19927;-66
2022/12/03 12:57:00;;;;;;;;;;;3.90;99.90;;;;;;4894952;29;19931;-67
2022/12/03 12:59:28;;;;;;;;;;;3.90;99.90;;;;;;4894683;29;19950;-66
2022/12/03 13:01:55;;;;;;;;;;;3.80;99.90;;;;;;4903618;29;19931;-67
2022/12/03 13:04:23;;;;;;;;;;;3.80;99.90;;;;;;4894607;29;19927;-66
2022/12/03 13:06:52;;;;;;;;;;;3.70;99.90;;;;;;4894992;29;19935;-66
2022/12/03 13:09:20;;;;;;;;;;;3.70;99.90;;;;;;4895184;29;20300;-67
2022/12/03 13:11:52;;;;;;;;;;;3.70;99.90;;;;;;4909716;29;19936;-67
2022/12/03 13:14:20;;;;;;;;;;;3.60;99.90;;;;;;4895001;29;20434;-67
2022/12/03 13:16:47;;;;;;;;;;;3.60;99.90;;;;;;4898468;29;19931;-67
2022/12/03 13:19:21;;;;;;;;;;;3.50;99.90;;;;;;4895401;29;19935;-66
2022/12/03 13:21:49;;;;;;;;;;;3.40;99.90;;;;;;4895913;29;19927;-67
2022/12/03 13:24:26;;;;;;;;;;;3.40;99.90;;;;;;4906556;29;20406;-66
2022/12/03 13:26:55;;;;;;;;;;;3.40;99.90;;;;;;4895284;29;19931;-67
2022/12/03 13:29:22;;;;;;;;;;;3.40;99.90;;;;;;4894828;29;19927;-66
2022/12/03 13:31:52;;;;;;;;;;;3.40;99.90;;;;;;4894737;29;19927;-66
2022/12/03 13:34:20;;;;;;;;;;;3.40;99.90;;;;;;4894941;29;20367;-66
2022/12/03 13:36:47;;;;;;;;;;;3.40;99.90;;;;;;4895957;29;19939;-66
2022/12/03 13:39:15;;;;;;;;;;;3.30;99.90;;;;;;4895573;29;19928;-66
2022/12/03 13:44:29;;;;;;;;;;;3.30;99.90;;;;;;4912431;29;19923;-67
2022/12/03 13:46:56;;;;;;;;;;;3.30;99.90;;;;;;4895798;29;19931;-66
2022/12/03 13:49:24;;;;;;;;;;;3.30;99.90;;;;;;4895950;29;19995;-66
2022/12/03 13:51:51;;;;;;;;;;;3.30;99.90;;;;;;4896197;29;19928;-66
2022/12/03 13:54:22;;;;;;;;;;;3.30;99.90;;;;;;4896021;29;19931;-66
2022/12/03 13:56:49;;;;;;;;;;;3.30;99.90;;;;;;4895962;29;19928;-66
2022/12/03 13:59:16;;;;;;;;;;;3.30;99.90;;;;;;4895339;29;20426;-66
2022/12/03 14:01:45;;;;;;;;;;;3.30;99.90;;;;;;4896885;29;20026;-66
2022/12/03 14:04:11;;;;;;;;;;;3.30;99.90;;;;;;4900376;29;20355;-66
2022/12/03 14:06:38;;;;;;;;;;;3.30;99.90;;;;;;4895829;29;19979;-66
2022/12/03 14:09:05;;;;;;;;;;;3.20;99.90;;;;;;4895233;29;19935;-66
2022/12/03 14:14:16;;;;;;;;;;;3.30;99.90;;;;;;4908125;29;19923;-66
2022/12/03 14:16:45;;;;;;;;;;;3.30;99.90;;;;;;4898734;29;19927;-67
2022/12/03 14:19:12;;;;;;;;;;;3.30;99.90;;;;;;4895111;29;19938;-67
2022/12/03 14:21:39;;;;;;;;;;;3.30;99.90;;;;;;4895258;29;20402;-67
2022/12/03 14:24:06;;;;;;;;;;;3.30;99.90;;;;;;4896623;29;19932;-67
2022/12/03 14:26:33;;;;;;;;;;;3.20;99.90;;;;;;4895638;29;20295;-66
2022/12/03 14:29:00;;;;;;;;;;;3.20;99.90;;;;;;4898980;29;19931;-66
2022/12/03 14:31:26;;;;;;;;;;;3.20;99.90;;;;;;4896510;29;19931;-66
2022/12/03 14:33:54;;;;;;;;;;;3.20;99.90;;;;;;4896757;29;20326;-66
2022/12/03 14:36:21;;;;;;;;;;;3.20;99.90;;;;;;4894422;29;20399;-66
2022/12/03 14:38:48;;;;;;;;;;;3.20;99.90;;;;;;4907749;29;19931;-68
2022/12/03 14:43:59;;;;;;;;;;;3.20;99.90;;;;;;4907852;29;19967;-68
2022/12/03 14:46:26;;;;;;;;;;;3.20;99.90;;;;;;4908141;29;19927;-67
2022/12/03 14:48:55;;;;;;;;;;;3.20;99.90;;;;;;4905628;29;19928;-68
2022/12/03 14:51:22;;;;;;;;;;;3.10;99.90;;;;;;4899173;29;19927;-67
2022/12/03 14:53:48;;;;;;;;;;;3.10;99.90;;;;;;4895629;29;19927;-67
2022/12/03 14:56:15;;;;;;;;;;;3.10;99.90;;;;;;4895779;29;19927;-67
2022/12/03 14:58:42;;;;;;;;;;;3.00;99.90;;;;;;4894382;29;19928;-67
2022/12/03 15:01:08;;;;;;;;;;;3.00;99.90;;;;;;4895435;29;19927;-67
2022/12/03 15:03:35;;;;;;;;;;;3.00;99.90;;;;;;4903523;29;19927;-67
2022/12/03 15:06:03;;;;;;;;;;;3.00;99.90;;;;;;4895441;29;19932;-67
2022/12/03 15:08:30;;;;;;;;;;;3.00;99.90;;;;;;4911980;23;19928;-68
2022/12/03 15:10:57;;;;;;;;;;;3.00;99.90;;;;;;4895288;29;19928;-68
2022/12/03 15:13:23;;;;;;;;;;;3.00;99.90;;;;;;4896559;29;20351;-68
2022/12/03 15:15:50;;;;;;;;;;;3.00;99.90;;;;;;4897072;29;20030;-69
2022/12/03 15:18:17;;;;;;;;;;;3.00;99.90;;;;;;4894389;29;19975;-65
2022/12/03 15:20:44;;;;;;;;;;;3.00;99.90;;;;;;4896148;29;19934;-65
2022/12/03 15:23:12;;;;;;;;;;;3.00;99.90;;;;;;4901056;29;20399;-67
2022/12/03 15:25:39;;;;;;;;;;;3.00;99.90;;;;;;4895276;29;19927;-67
2022/12/03 15:28:06;;;;;;;;;;;3.00;99.90;;;;;;4897816;29;19931;-68
2022/12/03 15:30:34;;;;;;;;;;;2.90;99.90;;;;;;4894504;29;19932;-67
2022/12/03 15:33:01;;;;;;;;;;;2.90;99.90;;;;;;4894347;29;20360;-68
2022/12/03 15:35:28;;;;;;;;;;;2.90;99.90;;;;;;4895141;29;20022;-67
2022/12/03 15:37:57;;;;;;;;;;;2.90;99.90;;;;;;4892832;29;19927;-67
2022/12/03 15:40:25;;;;;;;;;;;2.90;99.90;;;;;;4897179;29;19934;-69
2022/12/03 15:42:52;;;;;;;;;;;2.80;99.90;;;;;;4896979;29;20318;-67
2022/12/03 15:45:19;;;;;;;;;;;2.90;99.90;;;;;;4897089;29;19984;-68
2022/12/03 15:47:46;;;;;;;;;;;2.90;99.90;;;;;;4896636;29;20394;-68
2022/12/03 15:50:12;;;;;;;;;;;2.90;99.90;;;;;;4897148;29;19938;-67
2022/12/03 15:52:39;;;;;;;;;;;2.90;99.90;;;;;;4897248;29;19927;-67
2022/12/03 15:55:06;;;;;;;;;;;2.90;99.90;;;;;;4897372;29;19935;-67
2022/12/03 15:57:34;;;;;;;;;;;2.80;99.90;;;;;;4896719;29;19936;-67
2022/12/03 16:00:01;;;;;;;;;;;2.80;99.90;;;;;;4896900;29;19928;-67
2022/12/03 16:02:39;;;;;;;;;;;2.80;99.90;;;;;;4898559;29;19928;-68
2022/12/03 16:05:06;;;;;;;;;;;2.80;99.90;;;;;;4896920;29;19935;-67
2022/12/03 16:07:33;;;;;;;;;;;2.80;99.90;;;;;;4896283;29;19934;-67
2022/12/03 16:10:00;;;;;;;;;;;2.80;99.90;;;;;;4898961;29;19927;-67
2022/12/03 16:12:27;;;;;;;;;;;2.80;99.90;;;;;;4900498;29;19934;-68
2022/12/03 16:14:55;;;;;;;;;;;2.80;99.90;;;;;;4899537;29;19927;-68
2022/12/03 16:17:22;;;;;;;;;;;2.80;99.90;;;;;;4896091;29;20356;-67
2022/12/03 16:19:49;;;;;;;;;;;2.70;99.90;;;;;;4897501;29;19927;-68
2022/12/03 16:22:16;;;;;;;;;;;2.70;99.90;;;;;;4901963;29;19927;-68
2022/12/03 16:24:43;;;;;;;;;;;2.70;99.90;;;;;;4898154;29;19931;-67
2022/12/03 16:27:10;;;;;;;;;;;2.80;99.90;;;;;;4903498;29;19927;-67
2022/12/03 16:29:36;;;;;;;;;;;2.70;99.90;;;;;;4899824;29;19936;-68
2022/12/03 16:32:05;;;;;;;;;;;2.70;99.90;;;;;;4896590;29;19927;-73
2022/12/03 16:34:31;;;;;;;;;;;2.70;99.90;;;;;;4892504;29;20441;-68
2022/12/03 16:36:58;;;;;;;;;;;2.60;99.90;;;;;;4893760;29;19935;-68
2022/12/03 16:39:25;;;;;;;;;;;2.60;99.90;;;;;;4896129;29;20446;-69
2022/12/03 16:41:52;;;;;;;;;;;2.60;99.90;;;;;;4896585;29;19932;-67
2022/12/03 16:44:31;;;;;;;;;;;2.60;99.90;;;;;;4896692;29;20363;-68
2022/12/03 16:46:59;;;;;;;;;;;2.60;99.90;;;;;;4889285;29;20307;-69
2022/12/03 16:49:28;;;;;;;;;;;2.60;99.90;;;;;;4896590;29;20383;-69
2022/12/03 16:51:55;;;;;;;;;;;2.60;99.90;;;;;;4897428;29;20327;-68
2022/12/03 16:54:22;;;;;;;;;;;2.60;99.90;;;;;;4902684;29;19936;-68
2022/12/03 16:56:49;;;;;;;;;;;2.60;99.90;;;;;;4896371;29;19931;-68
2022/12/03 16:59:16;;;;;;;;;;;2.70;99.90;;;;;;4900942;29;19927;-69
2022/12/03 17:01:43;;;;;;;;;;;2.60;99.90;;;;;;4895904;29;19927;-69
2022/12/03 17:04:09;;;;;;;;;;;2.60;99.90;;;;;;4896412;29;19928;-67
2022/12/03 17:06:38;;;;;;;;;;;2.60;99.90;;;;;;4890932;29;19964;-68
2022/12/03 17:09:04;;;;;;;;;;;2.60;99.90;;;;;;4888191;29;19927;-68
2022/12/03 17:11:31;;;;;;;;;;;2.60;99.90;;;;;;4895621;29;19931;-68
2022/12/03 17:13:58;;;;;;;;;;;2.60;99.90;;;;;;4896060;29;19927;-67
2022/12/03 17:16:25;;;;;;;;;;;2.60;99.90;;;;;;4895957;29;20358;-68
2022/12/03 17:18:52;;;;;;;;;;;2.60;99.90;;;;;;4895637;29;20302;-68
2022/12/03 17:21:18;;;;;;;;;;;2.60;99.90;;;;;;4896337;29;19927;-68
2022/12/03 17:23:49;;;;;;;;;;;2.60;99.90;;;;;;4897101;29;19927;-68
2022/12/03 17:26:16;;;;;;;;;;;2.60;99.90;;;;;;4895957;29;19979;-69
2022/12/03 17:28:43;;;;;;;;;;;2.70;99.90;;;;;;4895337;29;19932;-68
2022/12/03 17:31:10;;;;;;;;;;;2.70;99.90;;;;;;4897104;29;19931;-69
2022/12/03 17:33:37;;;;;;;;;;;2.60;99.90;;;;;;4895989;29;20073;-68
2022/12/03 17:36:04;;;;;;;;;;;2.70;99.90;;;;;;4893972;29;19936;-68
2022/12/03 17:38:31;;;;;;;;;;;2.60;99.90;;;;;;4898102;29;19928;-70
2022/12/03 17:40:59;;;;;;;;;;;2.70;99.90;;;;;;4896340;29;19931;-67
2022/12/03 17:43:26;;;;;;;;;;;2.60;99.90;;;;;;4895945;29;19931;-68
2022/12/03 17:45:53;;;;;;;;;;;2.60;99.90;;;;;;4895009;29;19932;-68
2022/12/03 17:48:20;;;;;;;;;;;2.60;99.90;;;;;;4895319;29;19928;-68
2022/12/03 17:50:49;;;;;;;;;;;2.60;99.90;;;;;;4895305;29;19935;-68
2022/12/03 17:53:15;;;;;;;;;;;2.60;99.90;;;;;;4898818;29;20015;-68
2022/12/03 17:55:42;;;;;;;;;;;2.60;99.90;;;;;;4895173;29;19932;-69
2022/12/03 17:58:10;;;;;;;;;;;2.60;99.90;;;;;;4897884;29;19939;-69
2022/12/03 18:00:37;;;;;;;;;;;2.50;99.90;;;;;;4897092;29;19932;-68
2022/12/03 18:03:04;;;;;;;;;;;2.60;99.90;;;;;;4895337;29;19994;-68
2022/12/03 18:05:31;;;;;;;;;;;2.60;99.90;;;;;;4895226;29;19927;-69
2022/12/03 18:07:57;;;;;;;;;;;2.60;99.90;;;;;;4889764;29;19931;-68
2022/12/03 18:10:24;;;;;;;;;;;2.50;99.90;;;;;;4904419;29;19935;-68
2022/12/03 18:12:51;;;;;;;;;;;2.50;99.90;;;;;;4895104;29;19934;-70
2022/12/03 18:15:19;;;;;;;;;;;2.50;99.90;;;;;;4898459;29;19927;-68
2022/12/03 18:17:46;;;;;;;;;;;2.50;99.90;;;;;;4895566;29;19928;-66
2022/12/03 18:20:13;;;;;;;;;;;2.50;99.90;;;;;;4894944;29;19927;-67
2022/12/03 18:22:40;;;;;;;;;;;2.50;99.90;;;;;;4895241;29;19928;-68
2022/12/03 18:25:07;;;;;;;;;;;2.60;99.90;;;;;;4896621;29;19934;-69
2022/12/03 18:27:36;;;;;;;;;;;2.50;99.90;;;;;;4894131;29;20210;-68
2022/12/03 18:30:03;;;;;;;;;;;2.50;99.90;;;;;;4899967;29;19928;-68
2022/12/03 18:32:31;;;;;;;;;;;2.50;99.90;;;;;;4894712;29;19931;-69
2022/12/03 18:34:58;;;;;;;;;;;2.50;99.90;;;;;;4895060;29;19931;-69
2022/12/03 18:37:27;;;;;;;;;;;2.50;99.90;;;;;;4894177;29;19935;-68
2022/12/03 18:39:53;;;;;;;;;;;2.50;99.90;;;;;;4910044;29;20307;-68
2022/12/03 18:42:22;;;;;;;;;;;2.50;99.90;;;;;;4894625;29;20399;-68
2022/12/03 18:44:50;;;;;;;;;;;2.50;99.90;;;;;;4894689;29;20015;-67
2022/12/03 18:47:18;;;;;;;;;;;2.40;99.90;;;;;;4893973;29;20418;-68
2022/12/03 18:49:46;;;;;;;;;;;2.50;99.90;;;;;;4894044;29;20378;-68
2022/12/03 18:52:14;;;;;;;;;;;2.50;99.90;;;;;;4891273;29;19932;-69
2022/12/03 18:54:41;;;;;;;;;;;2.50;99.90;;;;;;4894601;29;19927;-68
2022/12/03 18:57:08;;;;;;;;;;;2.50;99.90;;;;;;4891261;29;19934;-69
2022/12/03 18:59:37;;;;;;;;;;;2.50;99.90;;;;;;4894145;29;19962;-68
2022/12/03 19:02:03;;;;;;;;;;;2.50;99.90;;;;;;4894507;29;19983;-68
2022/12/03 19:04:30;;;;;;;;;;;2.50;99.90;;;;;;4898945;29;19927;-68
2022/12/03 19:06:59;;;;;;;;;;;2.50;99.90;;;;;;4894240;29;19936;-67